| time (UTC) | temp C | wind direction | speed KPH | gust KPH | rain 1hr cm | rain 24hr cm | rain mn cm | humidity % | barometer mb |
| 20260510164815 | 27 | 45 | 1.6 | 3.2 | 0.00 | 0.00 | 0.00 | 60 | 1014.1 |
| 20260510164313 | 26 | 35 | 0.0 | 1.6 | 0.00 | 0.00 | 0.00 | 64 | 1014.1 |
| 20260510163812 | 26 | 1 | 6.4 | 6.4 | 0.00 | 0.00 | 0.00 | 67 | 1014.0 |
| 20260510163309 | 26 | 226 | 9.7 | 12.9 | 0.00 | 0.00 | 0.00 | 62 | 1014.3 |
| 20260510162808 | 26 | 354 | 1.6 | 1.6 | 0.00 | 0.00 | 0.00 | 65 | 1014.2 |
| 20260510162306 | 26 | 351 | 0.0 | 1.6 | 0.00 | 0.00 | 0.00 | 69 | 1014.1 |
| 20260510161801 | 26 | 342 | 1.6 | 1.6 | 0.00 | 0.00 | 0.00 | 67 | 1014.2 |
| 20260510161257 | 26 | 321 | 3.2 | 3.2 | 0.00 | 0.00 | 0.00 | 63 | 1014.2 |
| 20260510160754 | 26 | 334 | 3.2 | 4.8 | 0.00 | 0.00 | 0.00 | 71 | 1014.3 |
| 20260510160251 | 25 | 23 | 3.2 | 3.2 | 0.00 | 0.00 | 0.00 | 72 | 1014.1 |
| 20260510155746 | 25 | 16 | 3.2 | 4.8 | 0.00 | 0.00 | 0.00 | 73 | 1014.2 |
| 20260510155242 | 25 | 351 | 1.6 | 1.6 | 0.00 | 0.00 | 0.00 | 73 | 1014.0 |
| 20260510154738 | 25 | 357 | 4.8 | 4.8 | 0.00 | 0.00 | 0.00 | 74 | 1013.9 |
| 20260510154234 | 25 | 20 | 4.8 | 4.8 | 0.00 | 0.00 | 0.00 | 75 | 1014.0 |
| 20260510153729 | 25 | 344 | 6.4 | 6.4 | 0.00 | 0.00 | 0.00 | 75 | 1013.8 |
| 20260510153225 | 25 | 11 | 3.2 | 4.8 | 0.00 | 0.00 | 0.00 | 75 | 1013.9 |
| 20260510152722 | 25 | 355 | 0.0 | 1.6 | 0.00 | 0.00 | 0.00 | 78 | 1013.9 |
| 20260510152218 | 23 | 5 | 3.2 | 3.2 | 0.00 | 0.00 | 0.00 | 78 | 1013.9 |
| 20260510151715 | 24 | 16 | 3.2 | 4.8 | 0.00 | 0.00 | 0.00 | 79 | 1013.8 |
| 20260510151214 | 23 | 328 | 3.2 | 3.2 | 0.00 | 0.00 | 0.00 | 78 | 1014.1 |
| 20260510150709 | 24 | 353 | 4.8 | 4.8 | 0.00 | 0.00 | 0.00 | 79 | 1013.9 |
| 20260510150204 | 23 | 297 | 6.4 | 6.4 | 0.00 | 0.00 | 0.00 | 79 | 1013.7 |
| 20260510145701 | 23 | 331 | 6.4 | 9.7 | 0.00 | 0.00 | 0.00 | 80 | 1013.7 |
| 20260510145157 | 23 | 356 | 3.2 | 3.2 | 0.00 | 0.00 | 0.00 | 81 | 1013.7 |
| 20260510144654 | 24 | 333 | 1.6 | 1.6 | 0.00 | 0.00 | 0.00 | 80 | 1013.8 |
| 20260510144150 | 23 | 346 | 3.2 | 3.2 | 0.00 | 0.00 | 0.00 | 81 | 1013.9 |
| 20260510143645 | 23 | 356 | 1.6 | 1.6 | 0.00 | 0.00 | 0.00 | 82 | 1014.1 |
| 20260510143142 | 23 | 343 | 1.6 | 1.6 | 0.00 | 0.00 | 0.00 | 83 | 1014.0 |
| 20260510142638 | 23 | 40 | 4.8 | 4.8 | 0.00 | 0.00 | 0.00 | 83 | 1014.1 |
| 20260510142135 | 23 | 13 | 1.6 | 1.6 | 0.00 | 0.00 | 0.00 | 85 | 1014.0 |
| 20260510141632 | 22 | 46 | 1.6 | 3.2 | 0.00 | 0.00 | 0.00 | 85 | 1013.8 |
| 20260510141131 | 22 | 124 | 1.6 | 1.6 | 0.00 | 0.00 | 0.00 | 85 | 1013.6 |
| 20260510140626 | 22 | 124 | 1.6 | 3.2 | 0.00 | 0.00 | 0.00 | 85 | 1013.7 |
| 20260510140126 | 22 | 123 | 1.6 | 1.6 | 0.00 | 0.00 | 0.00 | 84 | 1013.6 |
| 20260510135621 | 23 | 124 | 0.0 | 1.6 | 0.00 | 0.00 | 0.00 | 82 | 1013.4 |
| 20260510135118 | 22 | 123 | 0.0 | 0.0 | 0.00 | 0.00 | 0.00 | 86 | 1013.6 |
| 20260510134615 | 21 | 123 | 0.0 | 0.0 | 0.00 | 0.00 | 0.00 | 88 | 1013.5 |
| 20260510134112 | 21 | 123 | 0.0 | 1.6 | 0.00 | 0.00 | 0.00 | 90 | 1013.5 |
| 20260510133608 | 20 | 123 | 0.0 | 0.0 | 0.00 | 0.00 | 0.00 | 91 | 1013.7 |
| 20260510133104 | 20 | 123 | 0.0 | 0.0 | 0.00 | 0.00 | 0.00 | 92 | 1013.5 |
| 20260510132601 | 20 | 123 | 0.0 | 0.0 | 0.00 | 0.00 | 0.00 | 92 | 1013.7 |
| 20260510132057 | 20 | 123 | 1.6 | 3.2 | 0.00 | 0.00 | 0.00 | 91 | 1013.6 |
| 20260510131555 | 20 | 123 | 1.6 | 1.6 | 0.00 | 0.00 | 0.00 | 92 | 1013.6 |
| 20260510131052 | 20 | 123 | 0.0 | 1.6 | 0.00 | 0.00 | 0.00 | 92 | 1013.6 |
| 20260510130548 | 20 | 123 | 1.6 | 1.6 | 0.00 | 0.00 | 0.00 | 92 | 1013.5 |
| 20260510130046 | 20 | 123 | 0.0 | 1.6 | 0.00 | 0.00 | 0.00 | 93 | 1013.7 |
| 20260510125542 | 19 | 122 | 0.0 | 0.0 | 0.00 | 0.00 | 0.00 | 94 | 1013.4 |
| 20260510125039 | 18 | 123 | 0.0 | 0.0 | 0.00 | 0.00 | 0.00 | 94 | 1013.6 |
| 20260510124536 | 18 | 123 | 0.0 | 1.6 | 0.00 | 0.00 | 0.00 | 94 | 1013.2 |
| 20260510124032 | 18 | 123 | 0.0 | 1.6 | 0.00 | 0.00 | 0.00 | 95 | 1013.5 |
| 20260510123527 | 18 | 123 | 0.0 | 0.0 | 0.00 | 0.00 | 0.00 | 95 | 1013.2 |
| 20260510123024 | 18 | 122 | 0.0 | 1.6 | 0.00 | 0.00 | 0.00 | 95 | 1013.0 |
| 20260510122519 | 18 | 123 | 0.0 | 0.0 | 0.00 | 0.00 | 0.00 | 95 | 1013.1 |
| 20260510122016 | 17 | 123 | 0.0 | 0.0 | 0.00 | 0.00 | 0.00 | 96 | 1013.1 |
| 20260510121513 | 17 | 123 | 0.0 | 0.0 | 0.00 | 0.00 | 0.00 | 96 | 1012.8 |
| 20260510121010 | 17 | 123 | 0.0 | 0.0 | 0.00 | 0.00 | 0.00 | 96 | 1012.8 |
| 20260510120508 | 16 | 123 | 0.0 | 0.0 | 0.00 | 0.00 | 0.00 | 97 | 1013.0 |
| 20260510120004 | 15 | 123 | 0.0 | 0.0 | 0.00 | 0.00 | 0.00 | 97 | 1013.0 |
| 20260510115501 | 15 | 123 | 3.2 | 3.2 | 0.00 | 0.00 | 0.00 | 97 | 1012.9 |
| 20260510114956 | 15 | 123 | 0.0 | 0.0 | 0.00 | 0.00 | 0.00 | 98 | 1012.8 |
| 20260510114453 | 15 | 123 | 0.0 | 0.0 | 0.00 | 0.00 | 0.00 | 98 | 1012.9 |
| 20260510113949 | 15 | 123 | 0.0 | 0.0 | 0.00 | 0.00 | 0.00 | 98 | 1012.7 |
| 20260510113444 | 15 | 123 | 0.0 | 0.0 | 0.00 | 0.00 | 0.00 | 99 | 1012.7 |
| 20260510112942 | 15 | 123 | 0.0 | 0.0 | 0.00 | 0.00 | 0.00 | 99 | 1012.6 |
| 20260510112439 | 15 | 123 | 0.0 | 0.0 | 0.00 | 0.00 | 0.00 | 99 | 1012.6 |
| 20260510111935 | 15 | 124 | 3.2 | 3.2 | 0.00 | 0.00 | 0.00 | 99 | 1012.3 |
| 20260510111431 | 14 | 124 | 3.2 | 3.2 | 0.00 | 0.00 | 0.00 | 99 | 1012.3 |
| 20260510110927 | 15 | 124 | 4.8 | 4.8 | 0.00 | 0.00 | 0.00 | 99 | 1012.4 |
| 20260510110424 | 14 | 124 | 3.2 | 3.2 | 0.00 | 0.00 | 0.00 | 99 | 1012.1 |
| 20260510105920 | 15 | 124 | 3.2 | 3.2 | 0.00 | 0.00 | 0.00 | 99 | 1011.8 |
| 20260510105415 | 14 | 124 | 3.2 | 3.2 | 0.00 | 0.00 | 0.00 | 99 | 1011.8 |
| 20260510104911 | 13 | 124 | 3.2 | 3.2 | 0.00 | 0.00 | 0.00 | 99 | 1011.6 |
| 20260510104408 | 13 | 124 | 3.2 | 3.2 | 0.00 | 0.00 | 0.00 | 99 | 1011.7 |
| 20260510103904 | 12 | 124 | 1.6 | 1.6 | 0.00 | 0.00 | 0.00 | 99 | 1011.4 |
| 20260510103402 | 13 | 124 | 1.6 | 1.6 | 0.00 | 0.00 | 0.00 | 99 | 1011.7 |
| 20260510102856 | 13 | 124 | 3.2 | 3.2 | 0.00 | 0.00 | 0.00 | 99 | 1011.6 |
| 20260510102352 | 13 | 124 | 1.6 | 1.6 | 0.00 | 0.00 | 0.00 | 99 | 1011.6 |
| 20260510101850 | 13 | 124 | 0.0 | 1.6 | 0.00 | 0.00 | 0.00 | 99 | 1011.6 |
| 20260510101348 | 13 | 124 | 1.6 | 1.6 | 0.00 | 0.00 | 0.00 | 99 | 1011.6 |
| 20260510100845 | 13 | 124 | 1.6 | 1.6 | 0.00 | 0.00 | 0.00 | 99 | 1011.4 |
| 20260510100342 | 13 | 124 | 1.6 | 1.6 | 0.00 | 0.00 | 0.00 | 99 | 1011.4 |
| 20260510095838 | 13 | 124 | 1.6 | 3.2 | 0.00 | 0.00 | 0.00 | 99 | 1011.3 |
| 20260510095332 | 13 | 124 | 0.0 | 0.0 | 0.00 | 0.00 | 0.00 | 99 | 1011.3 |
| 20260510094827 | 13 | 124 | 0.0 | 0.0 | 0.00 | 0.00 | 0.00 | 98 | 1011.2 |
| 20260510094322 | 13 | 124 | 0.0 | 0.0 | 0.00 | 0.00 | 0.00 | 98 | 1011.3 |
| 20260510093819 | 13 | 124 | 0.0 | 0.0 | 0.00 | 0.00 | 0.00 | 98 | 1011.2 |
| 20260510093314 | 13 | 124 | 0.0 | 0.0 | 0.00 | 0.00 | 0.00 | 97 | 1011.0 |
| 20260510092806 | 13 | 124 | 0.0 | 0.0 | 0.00 | 0.00 | 0.00 | 97 | 1011.2 |
| 20260510092301 | 13 | 124 | 0.0 | 1.6 | 0.00 | 0.00 | 0.00 | 97 | 1011.0 |
| 20260510091757 | 13 | 124 | 0.0 | 0.0 | 0.00 | 0.00 | 0.00 | 96 | 1011.0 |
| 20260510091255 | 13 | 124 | 0.0 | 0.0 | 0.00 | 0.00 | 0.00 | 96 | 1010.9 |
| 20260510090751 | 14 | 124 | 0.0 | 1.6 | 0.00 | 0.00 | 0.00 | 95 | 1010.8 |
| 20260510090248 | 14 | 124 | 4.8 | 4.8 | 0.00 | 0.00 | 0.00 | 95 | 1010.6 |
| 20260510085744 | 13 | 124 | 4.8 | 4.8 | 0.00 | 0.00 | 0.00 | 97 | 1010.8 |
| 20260510085238 | 13 | 124 | 3.2 | 4.8 | 0.00 | 0.00 | 0.00 | 96 | 1010.8 |
| 20260510084734 | 13 | 124 | 6.4 | 9.7 | 0.00 | 0.00 | 0.00 | 97 | 1010.9 |
| 20260510084231 | 13 | 107 | 1.6 | 1.6 | 0.00 | 0.00 | 0.00 | 98 | 1010.8 |
| 20260510083727 | 13 | 107 | 1.6 | 1.6 | 0.00 | 0.00 | 0.00 | 98 | 1011.0 |
| 20260510083224 | 13 | 107 | 1.6 | 1.6 | 0.00 | 0.00 | 0.00 | 98 | 1010.9 |
| 20260510082720 | 13 | 107 | 0.0 | 0.0 | 0.00 | 0.00 | 0.00 | 98 | 1010.9 |
| 20260510082217 | 13 | 107 | 0.0 | 1.6 | 0.00 | 0.00 | 0.00 | 99 | 1010.7 |
| 20260510081710 | 13 | 107 | 1.6 | 1.6 | 0.00 | 0.00 | 0.00 | 99 | 1010.6 |
| 20260510081207 | 13 | 107 | 1.6 | 1.6 | 0.00 | 0.00 | 0.00 | 99 | 1010.5 |
| 20260510080707 | 13 | 107 | 1.6 | 1.6 | 0.00 | 0.00 | 0.00 | 99 | 1010.5 |
| 20260510080203 | 13 | 107 | 1.6 | 1.6 | 0.00 | 0.00 | 0.00 | 99 | 1010.7 |
| 20260510075700 | 13 | 107 | 1.6 | 1.6 | 0.00 | 0.00 | 0.00 | 99 | 1010.7 |
| 20260510075158 | 13 | 107 | 1.6 | 1.6 | 0.00 | 0.00 | 0.00 | 99 | 1010.8 |
| 20260510074655 | 13 | 107 | 0.0 | 0.0 | 0.00 | 0.00 | 0.00 | 99 | 1010.7 |
| 20260510074151 | 13 | 107 | 0.0 | 0.0 | 0.00 | 0.00 | 0.00 | 99 | 1010.5 |
| 20260510073648 | 13 | 107 | 0.0 | 0.0 | 0.00 | 0.00 | 0.00 | 99 | 1010.4 |
| 20260510073144 | 13 | 107 | 0.0 | 0.0 | 0.00 | 0.00 | 0.00 | 98 | 1010.7 |
| 20260510072639 | 13 | 107 | 0.0 | 0.0 | 0.00 | 0.00 | 0.00 | 98 | 1010.6 |
| 20260510072136 | 13 | 107 | 0.0 | 0.0 | 0.00 | 0.00 | 0.00 | 97 | 1010.6 |
| 20260510071632 | 13 | 107 | 0.0 | 0.0 | 0.00 | 0.00 | 0.00 | 97 | 1010.8 |
| 20260510071130 | 13 | 107 | 0.0 | 0.0 | 0.00 | 0.00 | 0.00 | 97 | 1010.7 |
| 20260510070627 | 13 | 107 | 0.0 | 0.0 | 0.00 | 0.00 | 0.00 | 97 | 1010.4 |
| 20260510070125 | 13 | 107 | 0.0 | 0.0 | 0.00 | 0.00 | 0.00 | 97 | 1010.8 |
| 20260510065620 | 13 | 107 | 0.0 | 0.0 | 0.00 | 0.00 | 0.00 | 97 | 1010.8 |
| 20260510065117 | 13 | 107 | 1.6 | 1.6 | 0.00 | 0.00 | 0.00 | 96 | 1010.8 |
| 20260510064613 | 13 | 107 | 1.6 | 1.6 | 0.00 | 0.00 | 0.00 | 96 | 1010.6 |
| 20260510064110 | 13 | 107 | 0.0 | 0.0 | 0.00 | 0.00 | 0.00 | 96 | 1010.5 |
| 20260510063606 | 14 | 107 | 0.0 | 0.0 | 0.00 | 0.00 | 0.00 | 96 | 1010.5 |
| 20260510063103 | 14 | 107 | 0.0 | 0.0 | 0.00 | 0.00 | 0.00 | 96 | 1010.3 |
| 20260510062554 | 14 | 107 | 0.0 | 0.0 | 0.00 | 0.00 | 0.00 | 95 | 1010.3 |
| 20260510062049 | 14 | 107 | 0.0 | 0.0 | 0.00 | 0.00 | 0.00 | 95 | 1010.3 |
| 20260510061546 | 14 | 107 | 0.0 | 0.0 | 0.00 | 0.00 | 0.00 | 95 | 1010.1 |
| 20260510061043 | 14 | 107 | 0.0 | 0.0 | 0.00 | 0.00 | 0.00 | 94 | 1010.1 |
| 20260510060539 | 14 | 107 | 0.0 | 0.0 | 0.00 | 0.00 | 0.00 | 94 | 1010.2 |
| 20260510060035 | 14 | 107 | 0.0 | 0.0 | 0.00 | 0.00 | 0.00 | 94 | 1010.0 |
| 20260510055531 | 14 | 107 | 0.0 | 0.0 | 0.00 | 0.00 | 0.00 | 94 | 1010.0 |
| 20260510055030 | 14 | 107 | 0.0 | 0.0 | 0.00 | 0.00 | 0.00 | 95 | 1009.9 |
| 20260510054525 | 14 | 107 | 0.0 | 0.0 | 0.00 | 0.00 | 0.00 | 95 | 1009.9 |
| 20260510054020 | 14 | 107 | 0.0 | 0.0 | 0.00 | 0.00 | 0.00 | 95 | 1010.0 |
| 20260510053516 | 14 | 107 | 0.0 | 1.6 | 0.00 | 0.00 | 0.00 | 96 | 1010.2 |
| 20260510053013 | 14 | 107 | 1.6 | 1.6 | 0.00 | 0.00 | 0.00 | 97 | 1010.0 |
| 20260510052509 | 14 | 107 | 3.2 | 3.2 | 0.00 | 0.00 | 0.00 | 97 | 1010.2 |
| 20260510052005 | 14 | 107 | 1.6 | 3.2 | 0.00 | 0.00 | 0.00 | 97 | 1010.3 |
| 20260510051500 | 14 | 107 | 6.4 | 6.4 | 0.00 | 0.00 | 0.00 | 97 | 1010.5 |
| 20260510050957 | 14 | 85 | 1.6 | 1.6 | 0.00 | 0.00 | 0.00 | 97 | 1010.1 |
| 20260510050454 | 14 | 85 | 1.6 | 1.6 | 0.00 | 0.00 | 0.00 | 97 | 1010.2 |
| 20260510045951 | 15 | 85 | 0.0 | 0.0 | 0.00 | 0.00 | 0.00 | 96 | 1010.0 |
| 20260510045449 | 14 | 85 | 1.6 | 1.6 | 0.00 | 0.00 | 0.00 | 96 | 1010.2 |
| 20260510044945 | 14 | 85 | 1.6 | 1.6 | 0.00 | 0.00 | 0.00 | 96 | 1010.0 |
| 20260510044442 | 14 | 85 | 0.0 | 0.0 | 0.00 | 0.00 | 0.00 | 96 | 1010.0 |
| 20260510043939 | 15 | 85 | 0.0 | 0.0 | 0.00 | 0.00 | 0.00 | 95 | 1010.0 |
| 20260510043434 | 15 | 85 | 0.0 | 0.0 | 0.00 | 0.00 | 0.00 | 95 | 1010.0 |
| 20260510042933 | 15 | 85 | 3.2 | 3.2 | 0.00 | 0.00 | 0.00 | 95 | 1010.0 |
| 20260510042429 | 15 | 85 | 1.6 | 1.6 | 0.00 | 0.00 | 0.00 | 95 | 1010.0 |
| 20260510041924 | 15 | 85 | 3.2 | 3.2 | 0.00 | 0.00 | 0.00 | 94 | 1009.9 |
| 20260510041422 | 15 | 85 | 1.6 | 1.6 | 0.00 | 0.00 | 0.00 | 94 | 1009.9 |
| 20260510040919 | 15 | 85 | 1.6 | 1.6 | 0.00 | 0.00 | 0.00 | 93 | 1010.0 |
| 20260510040416 | 15 | 85 | 0.0 | 0.0 | 0.00 | 0.00 | 0.00 | 92 | 1010.3 |
| 20260510035911 | 15 | 85 | 0.0 | 1.6 | 0.00 | 0.00 | 0.00 | 91 | 1010.1 |
| 20260510035408 | 15 | 85 | 1.6 | 1.6 | 0.00 | 0.00 | 0.00 | 91 | 1010.1 |
| 20260510034903 | 15 | 85 | 1.6 | 1.6 | 0.00 | 0.00 | 0.00 | 91 | 1010.3 |
| 20260510034402 | 15 | 85 | 1.6 | 1.6 | 0.00 | 0.00 | 0.00 | 91 | 1010.1 |
| 20260510033857 | 15 | 85 | 0.0 | 0.0 | 0.00 | 0.00 | 0.00 | 89 | 1010.1 |
| 20260510033354 | 15 | 86 | 4.8 | 4.8 | 0.00 | 0.00 | 0.00 | 88 | 1010.1 |
| 20260510032850 | 15 | 84 | 0.0 | 0.0 | 0.00 | 0.00 | 0.00 | 86 | 1010.1 |
| 20260510032347 | 15 | 84 | 0.0 | 0.0 | 0.00 | 0.00 | 0.00 | 85 | 1010.1 |
| 20260510031843 | 15 | 84 | 0.0 | 0.0 | 0.00 | 0.00 | 0.00 | 85 | 1010.2 |
| 20260510031339 | 16 | 84 | 0.0 | 0.0 | 0.00 | 0.00 | 0.00 | 85 | 1010.3 |
| 20260510030838 | 16 | 84 | 0.0 | 0.0 | 0.00 | 0.00 | 0.00 | 85 | 1010.3 |
| 20260510030335 | 16 | 84 | 0.0 | 0.0 | 0.00 | 0.00 | 0.00 | 82 | 1010.3 |
| 20260510025833 | 16 | 84 | 0.0 | 0.0 | 0.00 | 0.00 | 0.00 | 81 | 1010.2 |
| 20260510025330 | 16 | 84 | 0.0 | 0.0 | 0.00 | 0.00 | 0.00 | 80 | 1010.1 |
| 20260510024826 | 16 | 84 | 0.0 | 0.0 | 0.00 | 0.00 | 0.00 | 83 | 1010.2 |
| 20260510024324 | 16 | 84 | 0.0 | 0.0 | 0.00 | 0.00 | 0.00 | 81 | 1010.2 |
| 20260510023820 | 17 | 84 | 0.0 | 0.0 | 0.00 | 0.00 | 0.00 | 78 | 1010.1 |
| 20260510023316 | 17 | 84 | 0.0 | 0.0 | 0.00 | 0.00 | 0.00 | 72 | 1009.9 |
| 20260510022813 | 17 | 84 | 0.0 | 1.6 | 0.00 | 0.00 | 0.00 | 70 | 1010.1 |
| 20260510022312 | 17 | 84 | 0.0 | 0.0 | 0.00 | 0.00 | 0.00 | 72 | 1009.8 |
| 20260510021811 | 17 | 84 | 0.0 | 0.0 | 0.00 | 0.00 | 0.00 | 73 | 1009.9 |
| 20260510021310 | 17 | 84 | 0.0 | 0.0 | 0.00 | 0.00 | 0.00 | 73 | 1009.7 |
| 20260510020805 | 17 | 84 | 0.0 | 0.0 | 0.00 | 0.00 | 0.00 | 72 | 1009.7 |
| 20260510020300 | 18 | 84 | 0.0 | 0.0 | 0.00 | 0.00 | 0.00 | 71 | 1009.8 |
| 20260510015756 | 18 | 84 | 0.0 | 0.0 | 0.00 | 0.00 | 0.00 | 72 | 1009.5 |
| 20260510015252 | 18 | 84 | 0.0 | 0.0 | 0.00 | 0.00 | 0.00 | 71 | 1009.3 |
| 20260510014747 | 18 | 84 | 0.0 | 0.0 | 0.00 | 0.00 | 0.00 | 69 | 1009.3 |
| 20260510014245 | 18 | 84 | 0.0 | 0.0 | 0.00 | 0.00 | 0.00 | 68 | 1009.1 |
| 20260510013741 | 18 | 84 | 0.0 | 0.0 | 0.00 | 0.00 | 0.00 | 70 | 1009.1 |
| 20260510013237 | 19 | 84 | 0.0 | 0.0 | 0.00 | 0.00 | 0.00 | 69 | 1009.1 |
| 20260510012736 | 20 | 84 | 0.0 | 0.0 | 0.00 | 0.00 | 0.00 | 67 | 1009.1 |
| 20260510012232 | 20 | 84 | 0.0 | 0.0 | 0.00 | 0.00 | 0.00 | 68 | 1009.1 |
| 20260510011727 | 20 | 84 | 0.0 | 0.0 | 0.00 | 0.00 | 0.00 | 66 | 1008.9 |
| 20260510011222 | 20 | 84 | 0.0 | 0.0 | 0.00 | 0.00 | 0.00 | 64 | 1009.0 |
| 20260510010719 | 20 | 84 | 0.0 | 0.0 | 0.00 | 0.00 | 0.00 | 64 | 1009.0 |
| 20260510010215 | 21 | 84 | 0.0 | 0.0 | 0.00 | 0.00 | 0.00 | 65 | 1008.7 |
| 20260510005712 | 21 | 84 | 0.0 | 0.0 | 0.00 | 0.00 | 0.00 | 62 | 1008.5 |
| 20260510005208 | 21 | 84 | 0.0 | 0.0 | 0.00 | 0.00 | 0.00 | 59 | 1008.8 |
| 20260510004707 | 22 | 84 | 0.0 | 0.0 | 0.00 | 0.00 | 0.00 | 57 | 1008.6 |
| 20260510004204 | 22 | 84 | 0.0 | 0.0 | 0.00 | 0.00 | 0.00 | 58 | 1008.4 |
| 20260510003702 | 23 | 84 | 0.0 | 0.0 | 0.00 | 0.00 | 0.00 | 51 | 1008.6 |
| 20260510003157 | 23 | 84 | 0.0 | 0.0 | 0.00 | 0.00 | 0.00 | 50 | 1008.5 |
| 20260510002651 | 23 | 84 | 0.0 | 0.0 | 0.00 | 0.00 | 0.00 | 47 | 1008.2 |
| 20260510002148 | 25 | 85 | 0.0 | 0.0 | 0.00 | 0.00 | 0.00 | 48 | 1008.4 |
| 20260510001645 | 25 | 85 | 0.0 | 1.6 | 0.00 | 0.00 | 0.00 | 45 | 1008.2 |
| 20260510001144 | 25 | 85 | 0.0 | 1.6 | 0.00 | 0.00 | 0.00 | 43 | 1008.2 |
| 20260510000639 | 25 | 86 | 1.6 | 1.6 | 0.00 | 0.00 | 0.00 | 42 | 1007.9 |
| 20260510000137 | 26 | 85 | 1.6 | 3.2 | 0.00 | 0.00 | 0.00 | 39 | 1008.1 |
| 20260509235632 | 26 | 85 | 1.6 | 1.6 | 0.00 | 0.00 | 0.00 | 38 | 1008.1 |
| 20260509235130 | 26 | 85 | 1.6 | 1.6 | 0.00 | 0.00 | 0.00 | 44 | 1007.9 |
| 20260509234626 | 26 | 85 | 0.0 | 1.6 | 0.00 | 0.00 | 0.00 | 36 | 1007.7 |
| 20260509234124 | 26 | 85 | 1.6 | 1.6 | 0.00 | 0.00 | 0.00 | 37 | 1007.8 |
| 20260509233621 | 26 | 85 | 1.6 | 1.6 | 0.00 | 0.00 | 0.00 | 37 | 1007.9 |
| 20260509233118 | 26 | 84 | 3.2 | 3.2 | 0.00 | 0.00 | 0.00 | 38 | 1007.7 |
| 20260509232614 | 26 | 79 | 1.6 | 1.6 | 0.00 | 0.00 | 0.00 | 37 | 1007.8 |
| 20260509232111 | 26 | 77 | 3.2 | 3.2 | 0.00 | 0.00 | 0.00 | 37 | 1007.9 |
| 20260509231608 | 27 | 71 | 0.0 | 0.0 | 0.00 | 0.00 | 0.00 | 38 | 1007.8 |
| 20260509231106 | 26 | 72 | 1.6 | 1.6 | 0.00 | 0.00 | 0.00 | 36 | 1007.9 |
| 20260509230602 | 26 | 73 | 3.2 | 4.8 | 0.00 | 0.00 | 0.00 | 36 | 1007.6 |
| 20260509230100 | 26 | 25 | 3.2 | 3.2 | 0.00 | 0.00 | 0.00 | 36 | 1007.7 |
| 20260509225555 | 27 | 21 | 1.6 | 3.2 | 0.00 | 0.00 | 0.00 | 36 | 1007.7 |
| 20260509225050 | 27 | 48 | 0.0 | 1.6 | 0.00 | 0.00 | 0.00 | 35 | 1007.4 |
| 20260509224546 | 27 | 59 | 3.2 | 3.2 | 0.00 | 0.00 | 0.00 | 36 | 1007.6 |
| 20260509224043 | 26 | 59 | 1.6 | 1.6 | 0.00 | 0.00 | 0.00 | 35 | 1007.4 |
| 20260509223540 | 27 | 83 | 4.8 | 4.8 | 0.00 | 0.00 | 0.00 | 34 | 1007.5 |
| 20260509223038 | 26 | 28 | 3.2 | 3.2 | 0.00 | 0.00 | 0.00 | 36 | 1007.5 |
| 20260509222534 | 26 | 42 | 1.6 | 1.6 | 0.00 | 0.00 | 0.00 | 34 | 1007.6 |
| 20260509222035 | 27 | 26 | 6.4 | 9.7 | 0.00 | 0.00 | 0.00 | 35 | 1007.8 |
| 20260509221526 | 27 | 33 | 3.2 | 3.2 | 0.00 | 0.00 | 0.00 | 35 | 1007.9 |
| 20260509221022 | 27 | 63 | 0.0 | 1.6 | 0.00 | 0.00 | 0.00 | 35 | 1007.6 |
| 20260509220518 | 27 | 82 | 4.8 | 4.8 | 0.00 | 0.00 | 0.00 | 33 | 1007.7 |
| 20260509220014 | 26 | 28 | 0.0 | 0.0 | 0.00 | 0.00 | 0.00 | 34 | 1007.7 |
| 20260509215509 | 26 | 49 | 6.4 | 9.7 | 0.00 | 0.00 | 0.00 | 36 | 1007.9 |
| 20260509215007 | 27 | 356 | 4.8 | 6.4 | 0.00 | 0.00 | 0.00 | 35 | 1008.0 |
| 20260509214504 | 27 | 304 | 3.2 | 3.2 | 0.00 | 0.00 | 0.00 | 34 | 1008.0 |
| 20260509214001 | 26 | 333 | 6.4 | 9.7 | 0.00 | 0.00 | 0.00 | 36 | 1007.9 |
| 20260509213457 | 27 | 340 | 4.8 | 4.8 | 0.00 | 0.00 | 0.00 | 39 | 1007.8 |
| 20260509212954 | 27 | 60 | 6.4 | 6.4 | 0.00 | 0.00 | 0.00 | 35 | 1008.0 |
| 20260509212451 | 27 | 10 | 3.2 | 4.8 | 0.00 | 0.00 | 0.00 | 37 | 1008.0 |
| 20260509211947 | 26 | 350 | 4.8 | 4.8 | 0.00 | 0.00 | 0.00 | 37 | 1007.8 |
| 20260509211442 | 27 | 22 | 3.2 | 4.8 | 0.00 | 0.00 | 0.00 | 38 | 1007.7 |
| 20260509210940 | 27 | 8 | 4.8 | 6.4 | 0.00 | 0.00 | 0.00 | 36 | 1007.9 |
| 20260509210437 | 26 | 130 | 3.2 | 4.8 | 0.00 | 0.00 | 0.00 | 35 | 1008.1 |
| 20260509205932 | 27 | 11 | 4.8 | 4.8 | 0.00 | 0.00 | 0.00 | 34 | 1008.0 |
| 20260509205428 | 27 | 39 | 0.0 | 1.6 | 0.00 | 0.00 | 0.00 | 37 | 1007.9 |
| 20260509204924 | 27 | 13 | 1.6 | 1.6 | 0.00 | 0.00 | 0.00 | 38 | 1008.0 |
| 20260509204420 | 27 | 266 | 0.0 | 1.6 | 0.00 | 0.00 | 0.00 | 34 | 1007.9 |
| 20260509203916 | 26 | 46 | 0.0 | 1.6 | 0.00 | 0.00 | 0.00 | 34 | 1007.9 |
| 20260509203412 | 27 | 43 | 6.4 | 6.4 | 0.00 | 0.00 | 0.00 | 37 | 1007.9 |
| 20260509202910 | 27 | 43 | 0.0 | 1.6 | 0.00 | 0.00 | 0.00 | 37 | 1008.2 |
| 20260509202405 | 26 | 48 | 0.0 | 1.6 | 0.00 | 0.00 | 0.00 | 36 | 1008.0 |
| 20260509201900 | 26 | 352 | 6.4 | 6.4 | 0.00 | 0.00 | 0.00 | 36 | 1007.7 |
| 20260509201356 | 27 | 23 | 9.7 | 12.9 | 0.00 | 0.00 | 0.00 | 35 | 1007.9 |
| 20260509200853 | 26 | 41 | 0.0 | 0.0 | 0.00 | 0.00 | 0.00 | 36 | 1008.0 |
| 20260509200348 | 26 | 16 | 4.8 | 6.4 | 0.00 | 0.00 | 0.00 | 37 | 1008.1 |
| 20260509195845 | 27 | 359 | 6.4 | 6.4 | 0.00 | 0.00 | 0.00 | 39 | 1008.1 |
| 20260509195340 | 26 | 330 | 1.6 | 1.6 | 0.00 | 0.00 | 0.00 | 42 | 1008.3 |
| 20260509194840 | 26 | 352 | 1.6 | 3.2 | 0.00 | 0.00 | 0.00 | 41 | 1008.3 |
| 20260509194336 | 26 | 33 | 3.2 | 4.8 | 0.00 | 0.00 | 0.00 | 42 | 1008.2 |
| 20260509193832 | 26 | 315 | 3.2 | 3.2 | 0.00 | 0.00 | 0.00 | 45 | 1008.1 |
| 20260509193327 | 26 | 43 | 3.2 | 4.8 | 0.00 | 0.00 | 0.00 | 44 | 1008.2 |
| 20260509192823 | 26 | 341 | 4.8 | 6.4 | 0.00 | 0.00 | 0.00 | 47 | 1008.3 |
| 20260509192320 | 26 | 85 | 3.2 | 4.8 | 0.00 | 0.00 | 0.00 | 45 | 1008.1 |
| 20260509191815 | 26 | 333 | 1.6 | 1.6 | 0.00 | 0.00 | 0.00 | 41 | 1008.4 |
| 20260509191311 | 26 | 75 | 1.6 | 1.6 | 0.00 | 0.00 | 0.00 | 46 | 1008.3 |
| 20260509190806 | 26 | 218 | 3.2 | 3.2 | 0.00 | 0.00 | 0.00 | 47 | 1008.2 |
| 20260509190304 | 26 | 109 | 4.8 | 6.4 | 0.00 | 0.00 | 0.00 | 47 | 1008.2 |
| 20260509185801 | 25 | 103 | 3.2 | 3.2 | 0.00 | 0.00 | 0.00 | 45 | 1008.4 |
| 20260509185257 | 25 | 44 | 3.2 | 4.8 | 0.00 | 0.00 | 0.00 | 50 | 1008.3 |
| 20260509184755 | 25 | 31 | 3.2 | 4.8 | 0.00 | 0.00 | 0.00 | 51 | 1008.4 |
| 20260509184253 | 25 | 28 | 6.4 | 9.7 | 0.00 | 0.00 | 0.00 | 50 | 1008.6 |
| 20260509183749 | 25 | 38 | 1.6 | 1.6 | 0.00 | 0.00 | 0.00 | 52 | 1008.6 |
| 20260509183244 | 25 | 46 | 0.0 | 1.6 | 0.00 | 0.00 | 0.00 | 51 | 1008.6 |
| 20260509182740 | 25 | 22 | 6.4 | 11.3 | 0.00 | 0.00 | 0.00 | 50 | 1008.7 |
| 20260509182238 | 25 | 33 | 4.8 | 6.4 | 0.00 | 0.00 | 0.00 | 49 | 1008.5 |
| 20260509181735 | 25 | 13 | 4.8 | 4.8 | 0.00 | 0.00 | 0.00 | 51 | 1008.9 |
| 20260509181232 | 25 | 63 | 1.6 | 1.6 | 0.00 | 0.00 | 0.00 | 49 | 1008.8 |
| 20260509180729 | 25 | 298 | 3.2 | 4.8 | 0.00 | 0.00 | 0.00 | 48 | 1008.8 |
| 20260509180225 | 25 | 342 | 8.0 | 9.7 | 0.00 | 0.00 | 0.00 | 52 | 1008.8 |
| 20260509175722 | 25 | 55 | 1.6 | 1.6 | 0.00 | 0.00 | 0.00 | 52 | 1008.7 |
| 20260509175218 | 25 | 7 | 1.6 | 3.2 | 0.00 | 0.00 | 0.00 | 52 | 1008.9 |
| 20260509174714 | 25 | 4 | 3.2 | 4.8 | 0.00 | 0.00 | 0.00 | 50 | 1008.8 |
| 20260509174209 | 24 | 27 | 1.6 | 1.6 | 0.00 | 0.00 | 0.00 | 54 | 1008.7 |
| 20260509173706 | 24 | 83 | 6.4 | 6.4 | 0.00 | 0.00 | 0.00 | 54 | 1008.9 |
| 20260509173201 | 24 | 44 | 0.0 | 1.6 | 0.00 | 0.00 | 0.00 | 58 | 1008.7 |
| 20260509172658 | 24 | 31 | 1.6 | 3.2 | 0.00 | 0.00 | 0.00 | 60 | 1008.8 |
| 20260509172154 | 24 | 2 | 1.6 | 1.6 | 0.00 | 0.00 | 0.00 | 60 | 1008.8 |
| 20260509171649 | 24 | 308 | 4.8 | 4.8 | 0.00 | 0.00 | 0.00 | 57 | 1008.9 |
| 20260509171145 | 24 | 330 | 1.6 | 1.6 | 0.00 | 0.00 | 0.00 | 60 | 1008.9 |
| 20260509170643 | 24 | 353 | 0.0 | 1.6 | 0.00 | 0.00 | 0.00 | 56 | 1008.8 |
| 20260509170133 | 25 | 348 | 3.2 | 4.8 | 0.00 | 0.00 | 0.00 | 56 | 1008.9 |
| 20260509165632 | 24 | 209 | 3.2 | 3.2 | 0.00 | 0.00 | 0.00 | 56 | 1009.1 |
| 20260509165128 | 24 | 332 | 0.0 | 1.6 | 0.00 | 0.00 | 0.00 | 56 | 1009.0 |